Terminal Aerodrome Forecast
Issued by NWS Twin Cities, MN

Home | Current Version | Previous Version | Text Only | Print | Product List | Glossary On
Versions: 1 2 3 4 5 6 7 8 9 10 11 12
000
FTUS43 KMPX 272326
TAFEAU
TAF
KEAU 272326Z 2800/2824 19012KT P6SM BKN220
     FM280600 16009KT P6SM BKN250 WS020/19035KT
     FM281000 16011KT P6SM VCTS SCT030 BKN070CB WS020/19040KT
     FM281200 16012KT 6SM SHRA BR VCTS BKN020 OVC070CB
     FM281400 16009KT 5SM SHRA BR VCTS OVC015CB
     FM282000 19011KT 6SM -SHRA VCTS OVC025CB
     FM282300 23008KT P6SM -SHRA OVC020=

USA.gov is the U.S. government's official web portal to all federal, state and local government web resources and services.